sensor_id;sensor_type;location;lat;lon;timestamp;P1;durP1;ratioP1;P2;durP2;ratioP2
14799;SDS011;7491;57.750;11.970;2023-08-08T00:02:16;11.43;;;2.63;;
14799;SDS011;7491;57.750;11.970;2023-08-08T00:04:44;7.90;;;1.70;;
14799;SDS011;7491;57.750;11.970;2023-08-08T00:07:10;11.27;;;2.15;;
14799;SDS011;7491;57.750;11.970;2023-08-08T00:09:37;7.45;;;1.85;;
14799;SDS011;7491;57.750;11.970;2023-08-08T00:12:04;10.15;;;2.38;;
14799;SDS011;7491;57.750;11.970;2023-08-08T00:14:31;6.65;;;1.92;;
14799;SDS011;7491;57.750;11.970;2023-08-08T00:16:58;7.55;;;1.92;;
14799;SDS011;7491;57.750;11.970;2023-08-08T00:19:25;12.15;;;2.70;;
14799;SDS011;7491;57.750;11.970;2023-08-08T00:21:53;5.97;;;2.38;;
14799;SDS011;7491;57.750;11.970;2023-08-08T00:24:19;13.48;;;2.83;;
14799;SDS011;7491;57.750;11.970;2023-08-08T00:26:46;9.38;;;2.15;;
14799;SDS011;7491;57.750;11.970;2023-08-08T00:29:13;8.73;;;2.03;;
14799;SDS011;7491;57.750;11.970;2023-08-08T00:31:40;9.35;;;2.08;;
14799;SDS011;7491;57.750;11.970;2023-08-08T00:34:06;11.73;;;2.45;;
14799;SDS011;7491;57.750;11.970;2023-08-08T00:36:33;13.07;;;2.50;;
14799;SDS011;7491;57.750;11.970;2023-08-08T00:39:02;11.63;;;2.63;;
14799;SDS011;7491;57.750;11.970;2023-08-08T00:41:28;11.32;;;2.28;;
14799;SDS011;7491;57.750;11.970;2023-08-08T00:43:55;10.60;;;1.98;;
14799;SDS011;7491;57.750;11.970;2023-08-08T00:46:22;9.43;;;2.35;;
14799;SDS011;7491;57.750;11.970;2023-08-08T00:48:50;10.45;;;2.35;;
14799;SDS011;7491;57.750;11.970;2023-08-08T00:51:17;10.32;;;2.25;;
14799;SDS011;7491;57.750;11.970;2023-08-08T00:53:44;12.30;;;2.20;;
14799;SDS011;7491;57.750;11.970;2023-08-08T00:56:14;10.27;;;2.53;;
14799;SDS011;7491;57.750;11.970;2023-08-08T00:58:42;8.43;;;2.03;;
14799;SDS011;7491;57.750;11.970;2023-08-08T01:01:10;20.23;;;2.40;;
14799;SDS011;7491;57.750;11.970;2023-08-08T01:03:37;10.63;;;2.03;;
14799;SDS011;7491;57.750;11.970;2023-08-08T01:06:05;13.73;;;3.03;;
14799;SDS011;7491;57.750;11.970;2023-08-08T01:08:42;16.88;;;3.05;;
14799;SDS011;7491;57.750;11.970;2023-08-08T01:11:13;13.50;;;2.55;;
14799;SDS011;7491;57.750;11.970;2023-08-08T01:13:41;14.98;;;2.25;;
14799;SDS011;7491;57.750;11.970;2023-08-08T01:16:11;10.60;;;2.40;;
14799;SDS011;7491;57.750;11.970;2023-08-08T01:18:39;16.02;;;2.75;;
14799;SDS011;7491;57.750;11.970;2023-08-08T01:21:08;13.32;;;2.95;;
14799;SDS011;7491;57.750;11.970;2023-08-08T01:23:40;9.73;;;2.35;;
14799;SDS011;7491;57.750;11.970;2023-08-08T01:26:12;12.95;;;2.50;;
14799;SDS011;7491;57.750;11.970;2023-08-08T01:28:39;15.23;;;2.58;;
14799;SDS011;7491;57.750;11.970;2023-08-08T01:31:05;12.57;;;2.78;;
14799;SDS011;7491;57.750;11.970;2023-08-08T01:33:32;15.65;;;2.38;;
14799;SDS011;7491;57.750;11.970;2023-08-08T01:36:00;21.73;;;2.60;;
14799;SDS011;7491;57.750;11.970;2023-08-08T01:38:34;13.40;;;2.30;;
14799;SDS011;7491;57.750;11.970;2023-08-08T01:41:05;14.18;;;2.95;;
14799;SDS011;7491;57.750;11.970;2023-08-08T01:43:35;13.95;;;3.03;;
14799;SDS011;7491;57.750;11.970;2023-08-08T01:46:04;14.88;;;2.38;;
14799;SDS011;7491;57.750;11.970;2023-08-08T01:48:32;16.73;;;2.08;;
14799;SDS011;7491;57.750;11.970;2023-08-08T01:50:59;13.30;;;2.38;;
14799;SDS011;7491;57.750;11.970;2023-08-08T01:53:26;16.50;;;2.55;;
14799;SDS011;7491;57.750;11.970;2023-08-08T01:55:53;21.33;;;2.90;;
14799;SDS011;7491;57.750;11.970;2023-08-08T01:58:19;13.00;;;2.95;;
14799;SDS011;7491;57.750;11.970;2023-08-08T02:00:47;17.52;;;2.55;;
14799;SDS011;7491;57.750;11.970;2023-08-08T02:03:14;17.90;;;2.88;;
14799;SDS011;7491;57.750;11.970;2023-08-08T02:05:41;9.98;;;2.58;;
14799;SDS011;7491;57.750;11.970;2023-08-08T02:08:07;12.25;;;2.90;;
14799;SDS011;7491;57.750;11.970;2023-08-08T02:10:34;8.20;;;2.13;;
14799;SDS011;7491;57.750;11.970;2023-08-08T02:13:01;13.65;;;2.63;;
14799;SDS011;7491;57.750;11.970;2023-08-08T02:15:28;10.85;;;2.13;;
14799;SDS011;7491;57.750;11.970;2023-08-08T02:17:56;11.57;;;2.35;;
14799;SDS011;7491;57.750;11.970;2023-08-08T02:20:23;11.25;;;2.05;;
14799;SDS011;7491;57.750;11.970;2023-08-08T02:22:51;11.90;;;2.63;;
14799;SDS011;7491;57.750;11.970;2023-08-08T02:25:18;15.40;;;2.70;;
14799;SDS011;7491;57.750;11.970;2023-08-08T02:27:45;15.93;;;2.58;;
14799;SDS011;7491;57.750;11.970;2023-08-08T02:30:12;14.50;;;2.60;;
14799;SDS011;7491;57.750;11.970;2023-08-08T02:32:39;13.93;;;2.42;;
14799;SDS011;7491;57.750;11.970;2023-08-08T02:35:09;17.27;;;2.63;;
14799;SDS011;7491;57.750;11.970;2023-08-08T02:37:36;15.07;;;2.28;;
14799;SDS011;7491;57.750;11.970;2023-08-08T02:40:03;17.08;;;3.00;;
14799;SDS011;7491;57.750;11.970;2023-08-08T02:42:30;16.67;;;2.67;;
14799;SDS011;7491;57.750;11.970;2023-08-08T02:44:57;16.13;;;2.75;;
14799;SDS011;7491;57.750;11.970;2023-08-08T02:47:24;14.75;;;2.05;;
14799;SDS011;7491;57.750;11.970;2023-08-08T02:49:50;16.08;;;2.67;;
14799;SDS011;7491;57.750;11.970;2023-08-08T02:52:18;13.10;;;2.72;;
14799;SDS011;7491;57.750;11.970;2023-08-08T02:54:47;11.20;;;2.60;;
14799;SDS011;7491;57.750;11.970;2023-08-08T02:57:15;14.18;;;2.60;;
14799;SDS011;7491;57.750;11.970;2023-08-08T02:59:43;17.35;;;2.60;;
14799;SDS011;7491;57.750;11.970;2023-08-08T03:02:10;18.38;;;2.60;;
14799;SDS011;7491;57.750;11.970;2023-08-08T03:04:36;14.27;;;2.75;;
14799;SDS011;7491;57.750;11.970;2023-08-08T03:07:03;11.20;;;2.70;;
14799;SDS011;7491;57.750;11.970;2023-08-08T03:09:32;23.27;;;3.28;;
14799;SDS011;7491;57.750;11.970;2023-08-08T03:11:59;14.27;;;2.47;;
14799;SDS011;7491;57.750;11.970;2023-08-08T03:14:26;12.73;;;2.60;;
14799;SDS011;7491;57.750;11.970;2023-08-08T03:16:53;12.38;;;3.28;;
14799;SDS011;7491;57.750;11.970;2023-08-08T03:19:20;19.08;;;3.00;;
14799;SDS011;7491;57.750;11.970;2023-08-08T03:21:47;15.05;;;3.13;;
14799;SDS011;7491;57.750;11.970;2023-08-08T03:24:13;16.33;;;2.80;;
14799;SDS011;7491;57.750;11.970;2023-08-08T03:26:41;16.40;;;2.40;;
14799;SDS011;7491;57.750;11.970;2023-08-08T03:29:08;17.20;;;3.13;;
14799;SDS011;7491;57.750;11.970;2023-08-08T03:31:35;16.67;;;2.92;;
14799;SDS011;7491;57.750;11.970;2023-08-08T03:34:02;18.00;;;2.70;;
14799;SDS011;7491;57.750;11.970;2023-08-08T03:36:29;12.32;;;2.92;;
14799;SDS011;7491;57.750;11.970;2023-08-08T03:38:56;18.35;;;3.00;;
14799;SDS011;7491;57.750;11.970;2023-08-08T03:41:23;18.05;;;2.75;;
14799;SDS011;7491;57.750;11.970;2023-08-08T03:43:51;20.70;;;3.60;;
14799;SDS011;7491;57.750;11.970;2023-08-08T03:46:17;17.92;;;3.75;;
14799;SDS011;7491;57.750;11.970;2023-08-08T03:48:44;25.13;;;3.47;;
14799;SDS011;7491;57.750;11.970;2023-08-08T03:51:11;20.90;;;3.30;;
14799;SDS011;7491;57.750;11.970;2023-08-08T03:53:38;24.50;;;4.25;;
14799;SDS011;7491;57.750;11.970;2023-08-08T03:56:05;13.70;;;2.67;;
14799;SDS011;7491;57.750;11.970;2023-08-08T03:58:33;18.42;;;3.22;;
14799;SDS011;7491;57.750;11.970;2023-08-08T04:01:01;16.38;;;3.05;;
14799;SDS011;7491;57.750;11.970;2023-08-08T04:03:28;18.20;;;2.80;;
14799;SDS011;7491;57.750;11.970;2023-08-08T04:05:55;12.75;;;2.50;;
14799;SDS011;7491;57.750;11.970;2023-08-08T04:08:22;16.63;;;3.22;;
14799;SDS011;7491;57.750;11.970;2023-08-08T04:10:49;10.48;;;1.98;;
14799;SDS011;7491;57.750;11.970;2023-08-08T04:13:16;18.10;;;2.70;;
14799;SDS011;7491;57.750;11.970;2023-08-08T04:15:43;17.10;;;2.42;;
14799;SDS011;7491;57.750;11.970;2023-08-08T04:18:11;12.38;;;2.90;;
14799;SDS011;7491;57.750;11.970;2023-08-08T04:20:38;16.35;;;2.88;;
14799;SDS011;7491;57.750;11.970;2023-08-08T04:23:05;12.40;;;3.17;;
14799;SDS011;7491;57.750;11.970;2023-08-08T04:25:31;19.48;;;3.30;;
14799;SDS011;7491;57.750;11.970;2023-08-08T04:27:58;18.73;;;3.30;;
14799;SDS011;7491;57.750;11.970;2023-08-08T04:30:25;22.55;;;2.88;;
14799;SDS011;7491;57.750;11.970;2023-08-08T04:32:52;13.23;;;2.10;;
14799;SDS011;7491;57.750;11.970;2023-08-08T04:35:20;14.30;;;2.58;;
14799;SDS011;7491;57.750;11.970;2023-08-08T04:37:46;15.63;;;2.75;;
14799;SDS011;7491;57.750;11.970;2023-08-08T04:40:14;17.05;;;2.70;;
14799;SDS011;7491;57.750;11.970;2023-08-08T04:42:40;12.70;;;2.80;;
14799;SDS011;7491;57.750;11.970;2023-08-08T04:45:08;21.65;;;3.00;;
14799;SDS011;7491;57.750;11.970;2023-08-08T04:47:35;16.08;;;3.03;;
14799;SDS011;7491;57.750;11.970;2023-08-08T04:50:02;24.35;;;3.17;;
14799;SDS011;7491;57.750;11.970;2023-08-08T04:52:31;15.65;;;3.10;;
14799;SDS011;7491;57.750;11.970;2023-08-08T04:54:57;11.75;;;2.47;;
14799;SDS011;7491;57.750;11.970;2023-08-08T04:57:24;13.98;;;2.45;;
14799;SDS011;7491;57.750;11.970;2023-08-08T04:59:51;16.70;;;2.95;;
14799;SDS011;7491;57.750;11.970;2023-08-08T05:02:17;15.45;;;2.38;;
14799;SDS011;7491;57.750;11.970;2023-08-08T05:04:44;15.98;;;2.70;;
14799;SDS011;7491;57.750;11.970;2023-08-08T05:07:11;11.02;;;2.28;;
14799;SDS011;7491;57.750;11.970;2023-08-08T05:09:39;17.85;;;2.58;;
14799;SDS011;7491;57.750;11.970;2023-08-08T05:12:06;14.77;;;1.88;;
14799;SDS011;7491;57.750;11.970;2023-08-08T05:14:33;10.25;;;2.03;;
14799;SDS011;7491;57.750;11.970;2023-08-08T05:17:01;9.82;;;1.70;;
14799;SDS011;7491;57.750;11.970;2023-08-08T05:19:28;13.70;;;1.83;;
14799;SDS011;7491;57.750;11.970;2023-08-08T05:21:55;12.38;;;2.22;;
14799;SDS011;7491;57.750;11.970;2023-08-08T05:24:21;14.60;;;2.35;;
14799;SDS011;7491;57.750;11.970;2023-08-08T05:26:49;12.43;;;1.60;;
14799;SDS011;7491;57.750;11.970;2023-08-08T05:29:16;8.45;;;1.67;;
14799;SDS011;7491;57.750;11.970;2023-08-08T05:31:43;13.15;;;1.65;;
14799;SDS011;7491;57.750;11.970;2023-08-08T05:34:10;6.00;;;1.70;;
14799;SDS011;7491;57.750;11.970;2023-08-08T05:36:36;6.32;;;1.60;;
14799;SDS011;7491;57.750;11.970;2023-08-08T05:39:03;7.38;;;1.67;;
14799;SDS011;7491;57.750;11.970;2023-08-08T05:41:32;8.75;;;1.60;;
14799;SDS011;7491;57.750;11.970;2023-08-08T05:44:00;11.43;;;1.77;;
14799;SDS011;7491;57.750;11.970;2023-08-08T05:46:27;9.40;;;1.90;;
14799;SDS011;7491;57.750;11.970;2023-08-08T05:48:54;11.32;;;1.75;;
14799;SDS011;7491;57.750;11.970;2023-08-08T05:51:20;7.93;;;1.90;;
14799;SDS011;7491;57.750;11.970;2023-08-08T05:53:47;7.68;;;1.60;;
14799;SDS011;7491;57.750;11.970;2023-08-08T05:56:14;12.18;;;1.65;;
14799;SDS011;7491;57.750;11.970;2023-08-08T05:58:41;9.63;;;1.92;;
14799;SDS011;7491;57.750;11.970;2023-08-08T06:01:09;5.10;;;1.10;;
14799;SDS011;7491;57.750;11.970;2023-08-08T06:03:36;4.35;;;1.60;;
14799;SDS011;7491;57.750;11.970;2023-08-08T06:06:03;9.48;;;1.90;;
14799;SDS011;7491;57.750;11.970;2023-08-08T06:08:31;9.38;;;1.67;;
14799;SDS011;7491;57.750;11.970;2023-08-08T06:10:58;9.70;;;1.52;;
14799;SDS011;7491;57.750;11.970;2023-08-08T06:13:24;9.95;;;1.40;;
14799;SDS011;7491;57.750;11.970;2023-08-08T06:15:51;11.80;;;1.67;;
14799;SDS011;7491;57.750;11.970;2023-08-08T06:18:20;5.15;;;1.40;;
14799;SDS011;7491;57.750;11.970;2023-08-08T06:20:46;11.20;;;1.73;;
14799;SDS011;7491;57.750;11.970;2023-08-08T06:23:13;9.13;;;1.67;;
14799;SDS011;7491;57.750;11.970;2023-08-08T06:25:40;10.70;;;1.75;;
14799;SDS011;7491;57.750;11.970;2023-08-08T06:28:07;8.57;;;2.20;;
14799;SDS011;7491;57.750;11.970;2023-08-08T06:30:33;11.63;;;2.13;;
14799;SDS011;7491;57.750;11.970;2023-08-08T06:33:00;9.75;;;2.00;;
14799;SDS011;7491;57.750;11.970;2023-08-08T06:35:28;10.75;;;2.08;;
14799;SDS011;7491;57.750;11.970;2023-08-08T06:37:55;11.15;;;2.03;;
14799;SDS011;7491;57.750;11.970;2023-08-08T06:40:22;12.30;;;2.80;;
14799;SDS011;7491;57.750;11.970;2023-08-08T06:42:49;8.93;;;1.70;;
14799;SDS011;7491;57.750;11.970;2023-08-08T06:45:16;12.48;;;1.85;;
14799;SDS011;7491;57.750;11.970;2023-08-08T06:47:43;9.20;;;2.38;;
14799;SDS011;7491;57.750;11.970;2023-08-08T06:50:10;8.40;;;2.15;;
14799;SDS011;7491;57.750;11.970;2023-08-08T06:52:38;9.43;;;2.47;;
14799;SDS011;7491;57.750;11.970;2023-08-08T06:55:05;11.80;;;2.15;;
14799;SDS011;7491;57.750;11.970;2023-08-08T06:57:33;16.20;;;2.53;;
14799;SDS011;7491;57.750;11.970;2023-08-08T07:00:00;9.00;;;2.60;;
14799;SDS011;7491;57.750;11.970;2023-08-08T07:02:30;15.52;;;2.65;;
14799;SDS011;7491;57.750;11.970;2023-08-08T07:04:56;14.63;;;2.78;;
14799;SDS011;7491;57.750;11.970;2023-08-08T07:07:23;15.07;;;2.25;;
14799;SDS011;7491;57.750;11.970;2023-08-08T07:09:51;13.45;;;2.20;;
14799;SDS011;7491;57.750;11.970;2023-08-08T07:12:18;12.55;;;2.30;;
14799;SDS011;7491;57.750;11.970;2023-08-08T07:14:45;16.20;;;2.33;;
14799;SDS011;7491;57.750;11.970;2023-08-08T07:17:11;12.73;;;3.08;;
14799;SDS011;7491;57.750;11.970;2023-08-08T07:19:38;17.85;;;2.78;;
14799;SDS011;7491;57.750;11.970;2023-08-08T07:22:06;11.40;;;2.25;;
14799;SDS011;7491;57.750;11.970;2023-08-08T07:24:33;19.23;;;3.28;;
14799;SDS011;7491;57.750;11.970;2023-08-08T07:27:01;17.63;;;3.10;;
14799;SDS011;7491;57.750;11.970;2023-08-08T07:29:28;13.18;;;2.67;;
14799;SDS011;7491;57.750;11.970;2023-08-08T07:31:57;16.73;;;2.55;;
14799;SDS011;7491;57.750;11.970;2023-08-08T07:34:24;17.77;;;2.90;;
14799;SDS011;7491;57.750;11.970;2023-08-08T07:36:51;18.80;;;3.78;;
14799;SDS011;7491;57.750;11.970;2023-08-08T07:39:17;17.80;;;3.20;;
14799;SDS011;7491;57.750;11.970;2023-08-08T07:41:45;16.48;;;3.55;;
14799;SDS011;7491;57.750;11.970;2023-08-08T07:44:13;23.25;;;4.07;;
14799;SDS011;7491;57.750;11.970;2023-08-08T07:46:39;21.20;;;3.80;;
14799;SDS011;7491;57.750;11.970;2023-08-08T07:49:06;15.50;;;3.60;;
14799;SDS011;7491;57.750;11.970;2023-08-08T07:51:34;13.73;;;3.22;;
14799;SDS011;7491;57.750;11.970;2023-08-08T07:54:01;19.15;;;3.10;;
14799;SDS011;7491;57.750;11.970;2023-08-08T07:56:32;19.25;;;3.15;;
14799;SDS011;7491;57.750;11.970;2023-08-08T07:58:59;23.27;;;3.28;;
14799;SDS011;7491;57.750;11.970;2023-08-08T08:01:28;17.48;;;3.42;;
14799;SDS011;7491;57.750;11.970;2023-08-08T08:03:54;16.15;;;3.40;;
14799;SDS011;7491;57.750;11.970;2023-08-08T08:06:21;22.92;;;3.78;;
14799;SDS011;7491;57.750;11.970;2023-08-08T08:08:48;23.92;;;4.07;;
14799;SDS011;7491;57.750;11.970;2023-08-08T08:11:15;22.95;;;3.45;;
14799;SDS011;7491;57.750;11.970;2023-08-08T08:13:41;20.75;;;4.78;;
14799;SDS011;7491;57.750;11.970;2023-08-08T08:16:08;9.95;;;2.92;;
14799;SDS011;7491;57.750;11.970;2023-08-08T08:18:36;15.77;;;3.55;;
14799;SDS011;7491;57.750;11.970;2023-08-08T08:21:03;13.15;;;3.17;;
14799;SDS011;7491;57.750;11.970;2023-08-08T08:23:30;16.58;;;3.13;;
14799;SDS011;7491;57.750;11.970;2023-08-08T08:25:57;18.13;;;3.42;;
14799;SDS011;7491;57.750;11.970;2023-08-08T08:28:25;19.35;;;3.85;;
14799;SDS011;7491;57.750;11.970;2023-08-08T08:30:52;20.33;;;3.55;;
14799;SDS011;7491;57.750;11.970;2023-08-08T08:33:18;23.20;;;4.40;;
14799;SDS011;7491;57.750;11.970;2023-08-08T08:35:47;22.48;;;3.78;;
14799;SDS011;7491;57.750;11.970;2023-08-08T08:38:13;15.30;;;3.72;;
14799;SDS011;7491;57.750;11.970;2023-08-08T08:40:40;15.27;;;3.88;;
14799;SDS011;7491;57.750;11.970;2023-08-08T08:43:09;15.23;;;3.33;;
14799;SDS011;7491;57.750;11.970;2023-08-08T08:45:39;19.77;;;3.55;;
14799;SDS011;7491;57.750;11.970;2023-08-08T08:48:09;20.10;;;3.80;;
14799;SDS011;7491;57.750;11.970;2023-08-08T08:50:36;20.50;;;4.05;;
14799;SDS011;7491;57.750;11.970;2023-08-08T08:53:06;15.70;;;3.90;;
14799;SDS011;7491;57.750;11.970;2023-08-08T08:55:36;20.10;;;3.58;;
14799;SDS011;7491;57.750;11.970;2023-08-08T08:58:03;20.75;;;2.83;;
14799;SDS011;7491;57.750;11.970;2023-08-08T09:00:30;21.33;;;4.15;;
14799;SDS011;7491;57.750;11.970;2023-08-08T09:02:57;22.23;;;3.22;;
14799;SDS011;7491;57.750;11.970;2023-08-08T09:05:24;19.30;;;3.15;;
14799;SDS011;7491;57.750;11.970;2023-08-08T09:07:52;18.38;;;3.55;;
14799;SDS011;7491;57.750;11.970;2023-08-08T09:10:20;14.15;;;3.10;;
14799;SDS011;7491;57.750;11.970;2023-08-08T09:12:47;18.00;;;3.40;;
14799;SDS011;7491;57.750;11.970;2023-08-08T09:15:14;21.15;;;3.38;;
14799;SDS011;7491;57.750;11.970;2023-08-08T09:17:40;19.05;;;3.58;;
14799;SDS011;7491;57.750;11.970;2023-08-08T09:20:10;15.95;;;3.30;;
14799;SDS011;7491;57.750;11.970;2023-08-08T09:22:37;16.30;;;2.67;;
14799;SDS011;7491;57.750;11.970;2023-08-08T09:25:04;24.20;;;4.07;;
14799;SDS011;7491;57.750;11.970;2023-08-08T09:27:34;19.23;;;3.45;;
14799;SDS011;7491;57.750;11.970;2023-08-08T09:30:01;19.95;;;3.10;;
14799;SDS011;7491;57.750;11.970;2023-08-08T09:32:29;21.50;;;4.07;;
14799;SDS011;7491;57.750;11.970;2023-08-08T09:34:56;21.75;;;3.47;;
14799;SDS011;7491;57.750;11.970;2023-08-08T09:37:23;16.20;;;2.72;;
14799;SDS011;7491;57.750;11.970;2023-08-08T09:39:56;18.05;;;3.13;;
14799;SDS011;7491;57.750;11.970;2023-08-08T09:42:23;18.77;;;3.13;;
14799;SDS011;7491;57.750;11.970;2023-08-08T09:44:53;21.58;;;3.17;;
14799;SDS011;7491;57.750;11.970;2023-08-08T09:47:20;16.05;;;2.80;;
14799;SDS011;7491;57.750;11.970;2023-08-08T09:49:47;16.50;;;3.03;;
14799;SDS011;7491;57.750;11.970;2023-08-08T09:52:14;17.10;;;3.20;;
14799;SDS011;7491;57.750;11.970;2023-08-08T09:54:42;10.50;;;3.15;;
14799;SDS011;7491;57.750;11.970;2023-08-08T09:57:09;24.92;;;3.72;;
14799;SDS011;7491;57.750;11.970;2023-08-08T09:59:45;18.08;;;3.53;;
14799;SDS011;7491;57.750;11.970;2023-08-08T10:15:59;13.88;;;2.70;;
14799;SDS011;7491;57.750;11.970;2023-08-08T10:18:41;18.30;;;3.15;;
14799;SDS011;7491;57.750;11.970;2023-08-08T10:21:19;18.27;;;3.30;;
14799;SDS011;7491;57.750;11.970;2023-08-08T10:24:02;17.85;;;3.28;;
14799;SDS011;7491;57.750;11.970;2023-08-08T10:30:00;18.83;;;3.15;;
14799;SDS011;7491;57.750;11.970;2023-08-08T10:32:50;17.35;;;3.05;;
14799;SDS011;7491;57.750;11.970;2023-08-08T10:35:34;13.43;;;3.63;;
14799;SDS011;7491;57.750;11.970;2023-08-08T10:41:50;15.93;;;3.20;;
14799;SDS011;7491;57.750;11.970;2023-08-08T10:44:30;14.13;;;2.63;;
14799;SDS011;7491;57.750;11.970;2023-08-08T10:57:06;10.85;;;2.72;;
14799;SDS011;7491;57.750;11.970;2023-08-08T11:03:48;13.95;;;2.60;;
14799;SDS011;7491;57.750;11.970;2023-08-08T11:06:26;19.48;;;3.80;;
14799;SDS011;7491;57.750;11.970;2023-08-08T11:09:12;18.13;;;3.42;;
14799;SDS011;7491;57.750;11.970;2023-08-08T11:15:52;16.10;;;3.05;;
14799;SDS011;7491;57.750;11.970;2023-08-08T11:18:49;11.57;;;2.67;;
14799;SDS011;7491;57.750;11.970;2023-08-08T11:21:28;14.43;;;3.40;;
14799;SDS011;7491;57.750;11.970;2023-08-08T11:24:11;14.30;;;2.85;;
14799;SDS011;7491;57.750;11.970;2023-08-08T11:27:12;13.85;;;2.88;;
14799;SDS011;7491;57.750;11.970;2023-08-08T11:29:51;16.98;;;3.30;;
14799;SDS011;7491;57.750;11.970;2023-08-08T11:32:44;16.38;;;2.80;;
14799;SDS011;7491;57.750;11.970;2023-08-08T11:35:21;19.35;;;2.85;;
14799;SDS011;7491;57.750;11.970;2023-08-08T11:41:05;22.15;;;4.00;;
14799;SDS011;7491;57.750;11.970;2023-08-08T11:43:49;19.58;;;4.53;;
14799;SDS011;7491;57.750;11.970;2023-08-08T11:49:48;29.77;;;4.90;;
14799;SDS011;7491;57.750;11.970;2023-08-08T11:52:31;28.73;;;4.60;;
14799;SDS011;7491;57.750;11.970;2023-08-08T11:55:30;30.08;;;5.03;;
14799;SDS011;7491;57.750;11.970;2023-08-08T11:58:06;24.40;;;4.30;;
14799;SDS011;7491;57.750;11.970;2023-08-08T12:00:33;37.03;;;5.85;;
14799;SDS011;7491;57.750;11.970;2023-08-08T12:03:00;32.20;;;5.88;;
14799;SDS011;7491;57.750;11.970;2023-08-08T12:05:29;36.92;;;5.95;;
14799;SDS011;7491;57.750;11.970;2023-08-08T12:07:58;38.50;;;6.88;;
14799;SDS011;7491;57.750;11.970;2023-08-08T12:10:25;36.20;;;5.88;;
14799;SDS011;7491;57.750;11.970;2023-08-08T12:12:56;41.33;;;6.38;;
14799;SDS011;7491;57.750;11.970;2023-08-08T12:15:27;38.88;;;7.75;;
14799;SDS011;7491;57.750;11.970;2023-08-08T12:17:54;45.35;;;7.88;;
14799;SDS011;7491;57.750;11.970;2023-08-08T12:20:27;47.38;;;8.50;;
14799;SDS011;7491;57.750;11.970;2023-08-08T12:23:09;37.45;;;7.60;;
14799;SDS011;7491;57.750;11.970;2023-08-08T12:25:36;46.08;;;7.43;;
14799;SDS011;7491;57.750;11.970;2023-08-08T12:28:10;37.90;;;6.53;;
14799;SDS011;7491;57.750;11.970;2023-08-08T12:30:37;50.30;;;7.28;;
14799;SDS011;7491;57.750;11.970;2023-08-08T12:33:03;51.10;;;6.97;;
14799;SDS011;7491;57.750;11.970;2023-08-08T12:35:32;42.60;;;8.05;;
14799;SDS011;7491;57.750;11.970;2023-08-08T12:37:58;40.25;;;6.57;;
14799;SDS011;7491;57.750;11.970;2023-08-08T12:40:25;39.35;;;7.65;;
14799;SDS011;7491;57.750;11.970;2023-08-08T12:42:52;43.10;;;8.68;;
14799;SDS011;7491;57.750;11.970;2023-08-08T12:45:20;46.38;;;6.80;;
14799;SDS011;7491;57.750;11.970;2023-08-08T12:47:46;49.25;;;7.72;;
14799;SDS011;7491;57.750;11.970;2023-08-08T12:50:13;43.08;;;7.15;;
14799;SDS011;7491;57.750;11.970;2023-08-08T12:52:40;35.53;;;6.47;;
14799;SDS011;7491;57.750;11.970;2023-08-08T12:55:07;46.40;;;7.20;;
14799;SDS011;7491;57.750;11.970;2023-08-08T12:57:36;36.40;;;6.80;;
14799;SDS011;7491;57.750;11.970;2023-08-08T13:00:04;42.80;;;6.47;;
14799;SDS011;7491;57.750;11.970;2023-08-08T13:02:36;44.45;;;8.05;;
14799;SDS011;7491;57.750;11.970;2023-08-08T13:05:04;41.80;;;7.45;;
14799;SDS011;7491;57.750;11.970;2023-08-08T13:07:32;46.60;;;7.55;;
14799;SDS011;7491;57.750;11.970;2023-08-08T13:09:59;39.55;;;6.88;;
14799;SDS011;7491;57.750;11.970;2023-08-08T13:12:26;41.03;;;7.07;;
14799;SDS011;7491;57.750;11.970;2023-08-08T13:14:52;38.35;;;7.75;;
14799;SDS011;7491;57.750;11.970;2023-08-08T13:17:19;40.20;;;6.80;;
14799;SDS011;7491;57.750;11.970;2023-08-08T13:19:47;40.42;;;7.18;;
14799;SDS011;7491;57.750;11.970;2023-08-08T13:22:14;33.40;;;6.00;;
14799;SDS011;7491;57.750;11.970;2023-08-08T13:24:41;41.20;;;7.45;;
14799;SDS011;7491;57.750;11.970;2023-08-08T13:27:07;40.42;;;8.10;;
14799;SDS011;7491;57.750;11.970;2023-08-08T13:29:34;49.00;;;7.95;;
14799;SDS011;7491;57.750;11.970;2023-08-08T13:32:01;40.88;;;7.20;;
14799;SDS011;7491;57.750;11.970;2023-08-08T13:34:28;51.20;;;7.75;;
14799;SDS011;7491;57.750;11.970;2023-08-08T13:36:56;47.75;;;8.50;;
14799;SDS011;7491;57.750;11.970;2023-08-08T13:39:24;35.65;;;6.35;;
14799;SDS011;7491;57.750;11.970;2023-08-08T13:41:51;44.63;;;7.60;;
14799;SDS011;7491;57.750;11.970;2023-08-08T13:44:17;39.80;;;5.88;;
14799;SDS011;7491;57.750;11.970;2023-08-08T13:46:44;43.10;;;8.18;;
14799;SDS011;7491;57.750;11.970;2023-08-08T13:49:11;39.88;;;7.10;;
14799;SDS011;7491;57.750;11.970;2023-08-08T13:51:37;42.83;;;7.95;;
14799;SDS011;7491;57.750;11.970;2023-08-08T13:54:05;53.83;;;7.55;;
14799;SDS011;7491;57.750;11.970;2023-08-08T13:56:32;45.63;;;7.90;;
14799;SDS011;7491;57.750;11.970;2023-08-08T13:58:59;40.15;;;7.68;;
14799;SDS011;7491;57.750;11.970;2023-08-08T14:01:26;49.70;;;7.32;;
14799;SDS011;7491;57.750;11.970;2023-08-08T14:03:52;40.05;;;8.23;;
14799;SDS011;7491;57.750;11.970;2023-08-08T14:06:19;45.20;;;7.10;;
14799;SDS011;7491;57.750;11.970;2023-08-08T14:08:46;40.30;;;7.13;;
14799;SDS011;7491;57.750;11.970;2023-08-08T14:11:14;39.60;;;7.18;;
14799;SDS011;7491;57.750;11.970;2023-08-08T14:13:41;43.30;;;6.72;;
14799;SDS011;7491;57.750;11.970;2023-08-08T14:16:08;41.55;;;7.30;;
14799;SDS011;7491;57.750;11.970;2023-08-08T14:18:34;36.17;;;5.90;;
14799;SDS011;7491;57.750;11.970;2023-08-08T14:21:01;34.70;;;6.93;;
14799;SDS011;7491;57.750;11.970;2023-08-08T14:23:46;35.70;;;6.40;;
14799;SDS011;7491;57.750;11.970;2023-08-08T14:26:30;46.50;;;7.38;;
14799;SDS011;7491;57.750;11.970;2023-08-08T14:29:02;41.70;;;7.38;;
14799;SDS011;7491;57.750;11.970;2023-08-08T14:31:53;46.13;;;7.72;;
14799;SDS011;7491;57.750;11.970;2023-08-08T14:34:38;45.20;;;6.10;;
14799;SDS011;7491;57.750;11.970;2023-08-08T14:37:40;38.25;;;8.13;;
14799;SDS011;7491;57.750;11.970;2023-08-08T14:40:23;42.95;;;7.80;;
14799;SDS011;7491;57.750;11.970;2023-08-08T14:43:21;47.63;;;7.75;;
14799;SDS011;7491;57.750;11.970;2023-08-08T14:46:04;44.55;;;7.53;;
14799;SDS011;7491;57.750;11.970;2023-08-08T14:48:34;47.13;;;8.02;;
14799;SDS011;7491;57.750;11.970;2023-08-08T14:51:38;48.55;;;8.35;;
14799;SDS011;7491;57.750;11.970;2023-08-08T14:54:20;35.75;;;7.25;;
14799;SDS011;7491;57.750;11.970;2023-08-08T14:57:32;41.47;;;7.28;;
14799;SDS011;7491;57.750;11.970;2023-08-08T15:00:33;43.35;;;7.15;;
14799;SDS011;7491;57.750;11.970;2023-08-08T15:03:26;44.92;;;7.55;;
14799;SDS011;7491;57.750;11.970;2023-08-08T15:06:04;41.67;;;6.68;;
14799;SDS011;7491;57.750;11.970;2023-08-08T15:08:51;51.78;;;11.40;;
14799;SDS011;7491;57.750;11.970;2023-08-08T15:11:32;37.60;;;7.28;;
14799;SDS011;7491;57.750;11.970;2023-08-08T15:14:17;40.30;;;6.55;;
14799;SDS011;7491;57.750;11.970;2023-08-08T15:17:08;44.90;;;7.20;;
14799;SDS011;7491;57.750;11.970;2023-08-08T15:19:44;48.78;;;9.90;;
14799;SDS011;7491;57.750;11.970;2023-08-08T15:22:54;64.07;;;17.90;;
14799;SDS011;7491;57.750;11.970;2023-08-08T15:26:01;47.33;;;7.28;;
14799;SDS011;7491;57.750;11.970;2023-08-08T15:28:51;34.83;;;6.57;;
14799;SDS011;7491;57.750;11.970;2023-08-08T15:31:29;37.30;;;7.50;;
14799;SDS011;7491;57.750;11.970;2023-08-08T15:34:31;41.47;;;8.18;;
14799;SDS011;7491;57.750;11.970;2023-08-08T15:37:01;38.65;;;7.05;;
14799;SDS011;7491;57.750;11.970;2023-08-08T15:39:46;41.13;;;6.45;;